sensor_id;sensor_type;location;lat;lon;timestamp;P1;durP1;ratioP1;P2;durP2;ratioP2
75785;SDS011;64402;44.708;37.644;2023-05-07T00:00:47;13.60;;;2.25;;
75785;SDS011;64402;44.708;37.644;2023-05-07T00:03:13;11.00;;;2.60;;
75785;SDS011;64402;44.708;37.644;2023-05-07T00:05:39;11.07;;;1.90;;
75785;SDS011;64402;44.708;37.644;2023-05-07T00:08:06;11.45;;;1.90;;
75785;SDS011;64402;44.708;37.644;2023-05-07T00:10:33;8.45;;;2.65;;
75785;SDS011;64402;44.708;37.644;2023-05-07T00:12:59;13.85;;;2.20;;
75785;SDS011;64402;44.708;37.644;2023-05-07T00:15:25;15.77;;;2.63;;
75785;SDS011;64402;44.708;37.644;2023-05-07T00:17:52;9.88;;;2.10;;
75785;SDS011;64402;44.708;37.644;2023-05-07T00:20:19;9.95;;;2.10;;
75785;SDS011;64402;44.708;37.644;2023-05-07T00:22:45;12.55;;;2.05;;
75785;SDS011;64402;44.708;37.644;2023-05-07T00:25:11;9.07;;;2.00;;
75785;SDS011;64402;44.708;37.644;2023-05-07T00:27:37;11.02;;;2.05;;
75785;SDS011;64402;44.708;37.644;2023-05-07T00:30:03;9.07;;;1.58;;
75785;SDS011;64402;44.708;37.644;2023-05-07T00:32:30;7.75;;;1.90;;
75785;SDS011;64402;44.708;37.644;2023-05-07T00:34:56;7.65;;;1.52;;
75785;SDS011;64402;44.708;37.644;2023-05-07T00:37:22;7.85;;;1.90;;
75785;SDS011;64402;44.708;37.644;2023-05-07T00:39:49;13.07;;;1.55;;
75785;SDS011;64402;44.708;37.644;2023-05-07T00:42:15;11.05;;;2.05;;
75785;SDS011;64402;44.708;37.644;2023-05-07T00:44:41;11.38;;;2.42;;
75785;SDS011;64402;44.708;37.644;2023-05-07T00:47:07;8.32;;;1.40;;
75785;SDS011;64402;44.708;37.644;2023-05-07T00:52:05;11.25;;;1.95;;
75785;SDS011;64402;44.708;37.644;2023-05-07T00:54:33;13.77;;;1.70;;
75785;SDS011;64402;44.708;37.644;2023-05-07T00:57:01;7.68;;;1.50;;
75785;SDS011;64402;44.708;37.644;2023-05-07T00:59:30;14.02;;;2.08;;
75785;SDS011;64402;44.708;37.644;2023-05-07T01:01:57;9.00;;;1.73;;
75785;SDS011;64402;44.708;37.644;2023-05-07T01:04:23;10.65;;;1.60;;
75785;SDS011;64402;44.708;37.644;2023-05-07T01:06:50;10.15;;;1.92;;
75785;SDS011;64402;44.708;37.644;2023-05-07T01:09:18;6.05;;;1.50;;
75785;SDS011;64402;44.708;37.644;2023-05-07T01:14:12;7.22;;;1.63;;
75785;SDS011;64402;44.708;37.644;2023-05-07T01:16:38;6.72;;;1.50;;
75785;SDS011;64402;44.708;37.644;2023-05-07T01:19:06;10.32;;;2.10;;
75785;SDS011;64402;44.708;37.644;2023-05-07T01:21:33;11.50;;;1.65;;
75785;SDS011;64402;44.708;37.644;2023-05-07T01:24:03;6.40;;;1.70;;
75785;SDS011;64402;44.708;37.644;2023-05-07T01:26:30;7.10;;;1.73;;
75785;SDS011;64402;44.708;37.644;2023-05-07T01:28:56;12.55;;;1.90;;
75785;SDS011;64402;44.708;37.644;2023-05-07T01:31:23;7.07;;;1.70;;
75785;SDS011;64402;44.708;37.644;2023-05-07T01:33:50;14.23;;;1.85;;
75785;SDS011;64402;44.708;37.644;2023-05-07T01:36:18;6.05;;;1.88;;
75785;SDS011;64402;44.708;37.644;2023-05-07T01:38:46;6.43;;;1.80;;
75785;SDS011;64402;44.708;37.644;2023-05-07T01:41:13;6.20;;;2.10;;
75785;SDS011;64402;44.708;37.644;2023-05-07T01:43:40;10.63;;;1.88;;
75785;SDS011;64402;44.708;37.644;2023-05-07T01:46:08;6.85;;;1.73;;
75785;SDS011;64402;44.708;37.644;2023-05-07T01:48:36;5.22;;;1.90;;
75785;SDS011;64402;44.708;37.644;2023-05-07T01:51:03;12.70;;;1.90;;
75785;SDS011;64402;44.708;37.644;2023-05-07T01:53:35;12.82;;;1.83;;
75785;SDS011;64402;44.708;37.644;2023-05-07T01:56:06;6.97;;;1.77;;
75785;SDS011;64402;44.708;37.644;2023-05-07T01:58:32;7.97;;;1.42;;
75785;SDS011;64402;44.708;37.644;2023-05-07T02:00:59;3.95;;;1.38;;
75785;SDS011;64402;44.708;37.644;2023-05-07T02:03:25;4.15;;;1.30;;
75785;SDS011;64402;44.708;37.644;2023-05-07T02:05:51;9.15;;;1.50;;
75785;SDS011;64402;44.708;37.644;2023-05-07T02:08:17;9.60;;;1.73;;
75785;SDS011;64402;44.708;37.644;2023-05-07T02:10:43;7.88;;;1.30;;
75785;SDS011;64402;44.708;37.644;2023-05-07T02:13:09;5.90;;;1.60;;
75785;SDS011;64402;44.708;37.644;2023-05-07T02:15:36;10.68;;;2.40;;
75785;SDS011;64402;44.708;37.644;2023-05-07T02:18:03;9.85;;;3.10;;
75785;SDS011;64402;44.708;37.644;2023-05-07T02:20:31;6.15;;;2.10;;
75785;SDS011;64402;44.708;37.644;2023-05-07T02:22:58;7.13;;;1.80;;
75785;SDS011;64402;44.708;37.644;2023-05-07T02:25:24;3.38;;;1.27;;
75785;SDS011;64402;44.708;37.644;2023-05-07T02:27:51;8.55;;;1.80;;
75785;SDS011;64402;44.708;37.644;2023-05-07T02:30:17;6.93;;;1.50;;
75785;SDS011;64402;44.708;37.644;2023-05-07T02:32:43;5.07;;;1.45;;
75785;SDS011;64402;44.708;37.644;2023-05-07T02:35:10;16.50;;;2.22;;
75785;SDS011;64402;44.708;37.644;2023-05-07T02:37:36;8.43;;;1.70;;
75785;SDS011;64402;44.708;37.644;2023-05-07T02:40:02;7.97;;;1.67;;
75785;SDS011;64402;44.708;37.644;2023-05-07T02:42:30;6.07;;;1.50;;
75785;SDS011;64402;44.708;37.644;2023-05-07T02:44:56;6.97;;;1.40;;
75785;SDS011;64402;44.708;37.644;2023-05-07T02:47:22;7.10;;;1.95;;
75785;SDS011;64402;44.708;37.644;2023-05-07T02:49:48;6.35;;;1.60;;
75785;SDS011;64402;44.708;37.644;2023-05-07T02:52:15;12.07;;;2.75;;
75785;SDS011;64402;44.708;37.644;2023-05-07T02:54:41;8.02;;;1.40;;
75785;SDS011;64402;44.708;37.644;2023-05-07T02:57:07;4.40;;;1.42;;
75785;SDS011;64402;44.708;37.644;2023-05-07T02:59:33;6.60;;;1.55;;
75785;SDS011;64402;44.708;37.644;2023-05-07T03:02:00;4.97;;;1.85;;
75785;SDS011;64402;44.708;37.644;2023-05-07T03:04:26;8.88;;;1.80;;
75785;SDS011;64402;44.708;37.644;2023-05-07T03:06:52;5.20;;;1.40;;
75785;SDS011;64402;44.708;37.644;2023-05-07T03:09:18;5.10;;;1.45;;
75785;SDS011;64402;44.708;37.644;2023-05-07T03:11:44;6.05;;;1.70;;
75785;SDS011;64402;44.708;37.644;2023-05-07T03:14:10;4.03;;;1.35;;
75785;SDS011;64402;44.708;37.644;2023-05-07T03:16:37;5.38;;;1.52;;
75785;SDS011;64402;44.708;37.644;2023-05-07T03:19:04;4.47;;;1.40;;
75785;SDS011;64402;44.708;37.644;2023-05-07T03:21:30;3.60;;;1.27;;
75785;SDS011;64402;44.708;37.644;2023-05-07T03:23:59;5.03;;;1.20;;
75785;SDS011;64402;44.708;37.644;2023-05-07T03:26:25;8.43;;;1.85;;
75785;SDS011;64402;44.708;37.644;2023-05-07T03:28:51;9.25;;;1.77;;
75785;SDS011;64402;44.708;37.644;2023-05-07T03:31:18;7.82;;;1.60;;
75785;SDS011;64402;44.708;37.644;2023-05-07T03:33:54;7.03;;;1.58;;
75785;SDS011;64402;44.708;37.644;2023-05-07T03:36:21;4.63;;;1.48;;
75785;SDS011;64402;44.708;37.644;2023-05-07T03:38:48;3.78;;;1.42;;
75785;SDS011;64402;44.708;37.644;2023-05-07T03:41:15;5.18;;;2.00;;
75785;SDS011;64402;44.708;37.644;2023-05-07T03:43:41;4.40;;;1.42;;
75785;SDS011;64402;44.708;37.644;2023-05-07T03:46:07;9.90;;;1.63;;
75785;SDS011;64402;44.708;37.644;2023-05-07T03:48:34;8.98;;;1.60;;
75785;SDS011;64402;44.708;37.644;2023-05-07T03:51:00;3.80;;;1.10;;
75785;SDS011;64402;44.708;37.644;2023-05-07T03:53:26;6.00;;;1.50;;
75785;SDS011;64402;44.708;37.644;2023-05-07T03:55:52;4.85;;;1.40;;
75785;SDS011;64402;44.708;37.644;2023-05-07T03:58:19;7.72;;;1.45;;
75785;SDS011;64402;44.708;37.644;2023-05-07T04:00:45;4.88;;;1.50;;
75785;SDS011;64402;44.708;37.644;2023-05-07T04:03:11;8.45;;;1.40;;
75785;SDS011;64402;44.708;37.644;2023-05-07T04:05:37;4.10;;;1.40;;
75785;SDS011;64402;44.708;37.644;2023-05-07T04:08:03;5.97;;;1.38;;
75785;SDS011;64402;44.708;37.644;2023-05-07T04:10:30;3.00;;;1.20;;
75785;SDS011;64402;44.708;37.644;2023-05-07T04:12:57;6.93;;;1.30;;
75785;SDS011;64402;44.708;37.644;2023-05-07T04:15:23;7.82;;;1.45;;
75785;SDS011;64402;44.708;37.644;2023-05-07T04:17:49;7.22;;;1.42;;
75785;SDS011;64402;44.708;37.644;2023-05-07T04:20:15;7.90;;;1.27;;
75785;SDS011;64402;44.708;37.644;2023-05-07T04:22:43;5.50;;;1.48;;
75785;SDS011;64402;44.708;37.644;2023-05-07T04:25:09;7.78;;;1.80;;
75785;SDS011;64402;44.708;37.644;2023-05-07T04:27:35;3.53;;;1.40;;
75785;SDS011;64402;44.708;37.644;2023-05-07T04:30:02;2.47;;;1.20;;
75785;SDS011;64402;44.708;37.644;2023-05-07T04:32:29;5.07;;;1.35;;
75785;SDS011;64402;44.708;37.644;2023-05-07T04:34:56;7.13;;;1.40;;
75785;SDS011;64402;44.708;37.644;2023-05-07T04:37:22;5.85;;;1.60;;
75785;SDS011;64402;44.708;37.644;2023-05-07T04:39:48;7.45;;;1.52;;
75785;SDS011;64402;44.708;37.644;2023-05-07T04:42:17;4.63;;;1.33;;
75785;SDS011;64402;44.708;37.644;2023-05-07T04:44:44;3.80;;;1.30;;
75785;SDS011;64402;44.708;37.644;2023-05-07T04:47:11;5.97;;;1.60;;
75785;SDS011;64402;44.708;37.644;2023-05-07T04:49:38;4.10;;;1.27;;
75785;SDS011;64402;44.708;37.644;2023-05-07T04:52:04;5.47;;;1.60;;
75785;SDS011;64402;44.708;37.644;2023-05-07T04:54:30;8.48;;;1.60;;
75785;SDS011;64402;44.708;37.644;2023-05-07T04:56:57;6.25;;;1.30;;
75785;SDS011;64402;44.708;37.644;2023-05-07T04:59:23;9.40;;;1.70;;
75785;SDS011;64402;44.708;37.644;2023-05-07T05:01:49;5.65;;;1.92;;
75785;SDS011;64402;44.708;37.644;2023-05-07T05:04:15;6.65;;;1.75;;
75785;SDS011;64402;44.708;37.644;2023-05-07T05:06:41;4.70;;;1.73;;
75785;SDS011;64402;44.708;37.644;2023-05-07T05:09:08;5.97;;;1.80;;
75785;SDS011;64402;44.708;37.644;2023-05-07T05:11:34;5.07;;;1.85;;
75785;SDS011;64402;44.708;37.644;2023-05-07T05:14:00;6.43;;;2.03;;
75785;SDS011;64402;44.708;37.644;2023-05-07T05:16:27;5.68;;;1.90;;
75785;SDS011;64402;44.708;37.644;2023-05-07T05:18:53;5.05;;;1.85;;
75785;SDS011;64402;44.708;37.644;2023-05-07T05:21:20;6.15;;;1.83;;
75785;SDS011;64402;44.708;37.644;2023-05-07T05:23:46;7.80;;;2.10;;
75785;SDS011;64402;44.708;37.644;2023-05-07T05:26:13;10.38;;;2.38;;
75785;SDS011;64402;44.708;37.644;2023-05-07T05:28:39;6.75;;;2.03;;
75785;SDS011;64402;44.708;37.644;2023-05-07T05:31:05;5.60;;;2.42;;
75785;SDS011;64402;44.708;37.644;2023-05-07T05:33:31;7.00;;;2.28;;
75785;SDS011;64402;44.708;37.644;2023-05-07T05:35:57;7.20;;;2.80;;
75785;SDS011;64402;44.708;37.644;2023-05-07T05:38:25;9.80;;;3.33;;
75785;SDS011;64402;44.708;37.644;2023-05-07T05:40:51;7.18;;;2.60;;
75785;SDS011;64402;44.708;37.644;2023-05-07T05:43:17;6.60;;;3.00;;
75785;SDS011;64402;44.708;37.644;2023-05-07T05:45:43;7.70;;;2.85;;
75785;SDS011;64402;44.708;37.644;2023-05-07T05:48:09;6.72;;;3.00;;
75785;SDS011;64402;44.708;37.644;2023-05-07T05:50:36;7.25;;;2.60;;
75785;SDS011;64402;44.708;37.644;2023-05-07T05:53:02;5.78;;;2.42;;
75785;SDS011;64402;44.708;37.644;2023-05-07T05:55:28;6.22;;;2.85;;
75785;SDS011;64402;44.708;37.644;2023-05-07T05:57:55;7.18;;;3.10;;
75785;SDS011;64402;44.708;37.644;2023-05-07T06:00:22;9.32;;;3.10;;
75785;SDS011;64402;44.708;37.644;2023-05-07T06:02:48;10.18;;;3.40;;
75785;SDS011;64402;44.708;37.644;2023-05-07T06:05:14;8.63;;;3.17;;
75785;SDS011;64402;44.708;37.644;2023-05-07T06:07:40;9.25;;;3.80;;
75785;SDS011;64402;44.708;37.644;2023-05-07T06:10:06;6.65;;;2.70;;
75785;SDS011;64402;44.708;37.644;2023-05-07T06:12:33;7.75;;;3.25;;
75785;SDS011;64402;44.708;37.644;2023-05-07T06:14:59;7.93;;;3.05;;
75785;SDS011;64402;44.708;37.644;2023-05-07T06:17:25;5.55;;;2.55;;
75785;SDS011;64402;44.708;37.644;2023-05-07T06:19:51;6.50;;;2.25;;
75785;SDS011;64402;44.708;37.644;2023-05-07T06:22:18;10.05;;;2.40;;
75785;SDS011;64402;44.708;37.644;2023-05-07T06:24:44;7.50;;;2.03;;
75785;SDS011;64402;44.708;37.644;2023-05-07T06:27:11;6.43;;;1.70;;
75785;SDS011;64402;44.708;37.644;2023-05-07T06:29:37;7.07;;;2.10;;
75785;SDS011;64402;44.708;37.644;2023-05-07T06:32:10;7.72;;;1.73;;
75785;SDS011;64402;44.708;37.644;2023-05-07T06:34:38;5.25;;;2.10;;
75785;SDS011;64402;44.708;37.644;2023-05-07T06:37:05;7.07;;;2.83;;
75785;SDS011;64402;44.708;37.644;2023-05-07T06:39:32;7.70;;;2.83;;
75785;SDS011;64402;44.708;37.644;2023-05-07T06:41:59;6.97;;;3.03;;
75785;SDS011;64402;44.708;37.644;2023-05-07T06:46:52;6.35;;;2.80;;
75785;SDS011;64402;44.708;37.644;2023-05-07T06:49:18;6.85;;;2.67;;
75785;SDS011;64402;44.708;37.644;2023-05-07T06:51:44;6.90;;;2.25;;
75785;SDS011;64402;44.708;37.644;2023-05-07T06:54:10;6.45;;;2.60;;
75785;SDS011;64402;44.708;37.644;2023-05-07T06:56:36;6.70;;;2.75;;
75785;SDS011;64402;44.708;37.644;2023-05-07T06:59:03;5.30;;;2.47;;
75785;SDS011;64402;44.708;37.644;2023-05-07T07:01:29;5.03;;;2.28;;
75785;SDS011;64402;44.708;37.644;2023-05-07T07:03:55;5.95;;;2.67;;
75785;SDS011;64402;44.708;37.644;2023-05-07T07:06:21;7.57;;;2.63;;
75785;SDS011;64402;44.708;37.644;2023-05-07T07:08:47;6.93;;;2.20;;
75785;SDS011;64402;44.708;37.644;2023-05-07T07:11:14;5.70;;;1.88;;
75785;SDS011;64402;44.708;37.644;2023-05-07T07:13:41;9.45;;;2.22;;
75785;SDS011;64402;44.708;37.644;2023-05-07T07:16:08;6.47;;;2.00;;
75785;SDS011;64402;44.708;37.644;2023-05-07T07:18:34;4.63;;;1.80;;
75785;SDS011;64402;44.708;37.644;2023-05-07T07:21:01;9.73;;;1.90;;
75785;SDS011;64402;44.708;37.644;2023-05-07T07:23:27;5.90;;;1.70;;
75785;SDS011;64402;44.708;37.644;2023-05-07T07:25:53;4.57;;;1.40;;
75785;SDS011;64402;44.708;37.644;2023-05-07T07:28:20;5.55;;;1.67;;
75785;SDS011;64402;44.708;37.644;2023-05-07T07:30:47;6.13;;;1.60;;
75785;SDS011;64402;44.708;37.644;2023-05-07T07:33:14;6.53;;;1.70;;
75785;SDS011;64402;44.708;37.644;2023-05-07T07:35:40;9.48;;;1.40;;
75785;SDS011;64402;44.708;37.644;2023-05-07T07:38:06;5.88;;;1.55;;
75785;SDS011;64402;44.708;37.644;2023-05-07T07:40:34;9.30;;;1.40;;
75785;SDS011;64402;44.708;37.644;2023-05-07T07:43:00;7.90;;;1.50;;
75785;SDS011;64402;44.708;37.644;2023-05-07T07:45:27;7.63;;;1.58;;
75785;SDS011;64402;44.708;37.644;2023-05-07T07:47:53;6.80;;;1.60;;
75785;SDS011;64402;44.708;37.644;2023-05-07T07:50:20;7.28;;;1.30;;
75785;SDS011;64402;44.708;37.644;2023-05-07T07:52:46;4.90;;;1.17;;
75785;SDS011;64402;44.708;37.644;2023-05-07T07:55:12;6.30;;;1.45;;
75785;SDS011;64402;44.708;37.644;2023-05-07T07:57:39;4.50;;;1.50;;
75785;SDS011;64402;44.708;37.644;2023-05-07T08:00:05;8.77;;;1.40;;
75785;SDS011;64402;44.708;37.644;2023-05-07T08:02:32;6.22;;;1.52;;
75785;SDS011;64402;44.708;37.644;2023-05-07T08:04:58;5.88;;;1.15;;
75785;SDS011;64402;44.708;37.644;2023-05-07T08:07:25;9.65;;;1.73;;
75785;SDS011;64402;44.708;37.644;2023-05-07T08:09:51;7.90;;;1.40;;
75785;SDS011;64402;44.708;37.644;2023-05-07T08:12:17;8.68;;;1.30;;
75785;SDS011;64402;44.708;37.644;2023-05-07T08:14:44;5.90;;;1.17;;
75785;SDS011;64402;44.708;37.644;2023-05-07T08:17:10;7.55;;;1.38;;
75785;SDS011;64402;44.708;37.644;2023-05-07T08:19:36;5.68;;;1.40;;
75785;SDS011;64402;44.708;37.644;2023-05-07T08:22:02;5.82;;;1.60;;
75785;SDS011;64402;44.708;37.644;2023-05-07T08:24:31;5.43;;;1.50;;
75785;SDS011;64402;44.708;37.644;2023-05-07T08:26:57;6.95;;;1.33;;
75785;SDS011;64402;44.708;37.644;2023-05-07T08:29:23;7.47;;;1.50;;
75785;SDS011;64402;44.708;37.644;2023-05-07T08:31:49;9.20;;;1.83;;
75785;SDS011;64402;44.708;37.644;2023-05-07T08:34:15;4.65;;;1.20;;
75785;SDS011;64402;44.708;37.644;2023-05-07T08:36:41;12.85;;;2.08;;
75785;SDS011;64402;44.708;37.644;2023-05-07T08:39:07;5.75;;;1.65;;
75785;SDS011;64402;44.708;37.644;2023-05-07T08:41:34;6.35;;;1.80;;
75785;SDS011;64402;44.708;37.644;2023-05-07T08:44:00;6.03;;;1.75;;
75785;SDS011;64402;44.708;37.644;2023-05-07T08:46:31;9.85;;;1.70;;
75785;SDS011;64402;44.708;37.644;2023-05-07T08:48:57;7.70;;;1.65;;
75785;SDS011;64402;44.708;37.644;2023-05-07T08:51:24;6.45;;;1.80;;
75785;SDS011;64402;44.708;37.644;2023-05-07T08:53:50;6.57;;;1.70;;
75785;SDS011;64402;44.708;37.644;2023-05-07T08:56:16;10.10;;;1.45;;
75785;SDS011;64402;44.708;37.644;2023-05-07T08:58:43;8.07;;;1.63;;
75785;SDS011;64402;44.708;37.644;2023-05-07T09:01:13;10.43;;;1.77;;
75785;SDS011;64402;44.708;37.644;2023-05-07T09:03:40;6.25;;;1.58;;
75785;SDS011;64402;44.708;37.644;2023-05-07T09:06:09;12.82;;;2.10;;
75785;SDS011;64402;44.708;37.644;2023-05-07T09:08:35;8.43;;;1.63;;
75785;SDS011;64402;44.708;37.644;2023-05-07T09:11:02;8.35;;;1.70;;
75785;SDS011;64402;44.708;37.644;2023-05-07T09:13:29;3.63;;;1.40;;
75785;SDS011;64402;44.708;37.644;2023-05-07T09:15:55;4.78;;;1.63;;
75785;SDS011;64402;44.708;37.644;2023-05-07T09:18:25;6.40;;;1.35;;
75785;SDS011;64402;44.708;37.644;2023-05-07T09:20:51;5.65;;;1.50;;
75785;SDS011;64402;44.708;37.644;2023-05-07T09:23:17;5.53;;;1.88;;
75785;SDS011;64402;44.708;37.644;2023-05-07T09:25:44;9.45;;;2.00;;
75785;SDS011;64402;44.708;37.644;2023-05-07T09:28:10;9.88;;;1.95;;
75785;SDS011;64402;44.708;37.644;2023-05-07T09:30:36;6.20;;;1.65;;
75785;SDS011;64402;44.708;37.644;2023-05-07T09:33:03;4.03;;;1.50;;
75785;SDS011;64402;44.708;37.644;2023-05-07T09:35:30;5.45;;;1.83;;
75785;SDS011;64402;44.708;37.644;2023-05-07T09:37:57;7.43;;;1.85;;
75785;SDS011;64402;44.708;37.644;2023-05-07T09:40:25;10.43;;;2.75;;
75785;SDS011;64402;44.708;37.644;2023-05-07T09:42:53;6.47;;;2.00;;
75785;SDS011;64402;44.708;37.644;2023-05-07T09:45:24;5.32;;;1.90;;
75785;SDS011;64402;44.708;37.644;2023-05-07T09:47:55;5.15;;;1.75;;
75785;SDS011;64402;44.708;37.644;2023-05-07T09:50:26;6.32;;;1.75;;
75785;SDS011;64402;44.708;37.644;2023-05-07T09:52:54;13.20;;;2.28;;
75785;SDS011;64402;44.708;37.644;2023-05-07T09:55:22;32.33;;;3.78;;
75785;SDS011;64402;44.708;37.644;2023-05-07T09:57:53;27.52;;;2.83;;
75785;SDS011;64402;44.708;37.644;2023-05-07T10:00:20;10.00;;;1.98;;
75785;SDS011;64402;44.708;37.644;2023-05-07T10:02:47;10.23;;;2.80;;
75785;SDS011;64402;44.708;37.644;2023-05-07T10:05:16;7.57;;;2.28;;
75785;SDS011;64402;44.708;37.644;2023-05-07T10:07:45;8.75;;;2.30;;
75785;SDS011;64402;44.708;37.644;2023-05-07T10:10:12;8.98;;;2.20;;
75785;SDS011;64402;44.708;37.644;2023-05-07T10:15:06;7.78;;;1.98;;
75785;SDS011;64402;44.708;37.644;2023-05-07T10:17:36;8.68;;;2.30;;
75785;SDS011;64402;44.708;37.644;2023-05-07T10:20:04;8.38;;;2.05;;
75785;SDS011;64402;44.708;37.644;2023-05-07T10:22:33;9.05;;;2.15;;
75785;SDS011;64402;44.708;37.644;2023-05-07T10:25:34;8.43;;;2.03;;
75785;SDS011;64402;44.708;37.644;2023-05-07T10:28:01;8.35;;;1.98;;
75785;SDS011;64402;44.708;37.644;2023-05-07T10:33:10;8.18;;;2.00;;
75785;SDS011;64402;44.708;37.644;2023-05-07T10:35:40;9.38;;;2.10;;
75785;SDS011;64402;44.708;37.644;2023-05-07T10:38:08;5.72;;;2.05;;
75785;SDS011;64402;44.708;37.644;2023-05-07T10:40:35;6.28;;;1.90;;
75785;SDS011;64402;44.708;37.644;2023-05-07T10:43:02;8.07;;;2.50;;
75785;SDS011;64402;44.708;37.644;2023-05-07T10:45:32;9.13;;;2.13;;
75785;SDS011;64402;44.708;37.644;2023-05-07T10:48:12;7.50;;;2.33;;
75785;SDS011;64402;44.708;37.644;2023-05-07T10:50:43;12.63;;;3.00;;
75785;SDS011;64402;44.708;37.644;2023-05-07T10:55:50;6.07;;;2.58;;
75785;SDS011;64402;44.708;37.644;2023-05-07T11:01:01;17.02;;;7.00;;
75785;SDS011;64402;44.708;37.644;2023-05-07T11:03:28;18.38;;;4.50;;
75785;SDS011;64402;44.708;37.644;2023-05-07T11:06:14;10.27;;;3.38;;
75785;SDS011;64402;44.708;37.644;2023-05-07T11:08:57;22.33;;;6.50;;
75785;SDS011;64402;44.708;37.644;2023-05-07T11:11:43;10.07;;;2.78;;
75785;SDS011;64402;44.708;37.644;2023-05-07T11:14:11;11.80;;;3.10;;
75785;SDS011;64402;44.708;37.644;2023-05-07T11:16:37;11.48;;;3.30;;
75785;SDS011;64402;44.708;37.644;2023-05-07T11:19:04;14.95;;;2.60;;
75785;SDS011;64402;44.708;37.644;2023-05-07T11:21:34;8.35;;;2.80;;
75785;SDS011;64402;44.708;37.644;2023-05-07T11:24:02;9.30;;;2.50;;
75785;SDS011;64402;44.708;37.644;2023-05-07T11:26:30;9.38;;;2.33;;
75785;SDS011;64402;44.708;37.644;2023-05-07T11:29:13;7.25;;;2.53;;
75785;SDS011;64402;44.708;37.644;2023-05-07T11:31:50;12.68;;;2.97;;
75785;SDS011;64402;44.708;37.644;2023-05-07T11:34:21;11.48;;;3.40;;
75785;SDS011;64402;44.708;37.644;2023-05-07T11:36:49;7.78;;;2.83;;
75785;SDS011;64402;44.708;37.644;2023-05-07T11:39:29;12.43;;;3.28;;
75785;SDS011;64402;44.708;37.644;2023-05-07T11:42:01;12.43;;;3.25;;
75785;SDS011;64402;44.708;37.644;2023-05-07T11:44:41;8.32;;;3.05;;
75785;SDS011;64402;44.708;37.644;2023-05-07T11:47:08;17.45;;;3.78;;
75785;SDS011;64402;44.708;37.644;2023-05-07T11:49:36;7.30;;;3.10;;
75785;SDS011;64402;44.708;37.644;2023-05-07T11:52:02;14.88;;;4.05;;
75785;SDS011;64402;44.708;37.644;2023-05-07T11:54:34;10.55;;;3.60;;
75785;SDS011;64402;44.708;37.644;2023-05-07T11:57:02;10.18;;;2.53;;
75785;SDS011;64402;44.708;37.644;2023-05-07T11:59:29;8.65;;;2.47;;
75785;SDS011;64402;44.708;37.644;2023-05-07T12:01:58;11.48;;;4.60;;
75785;SDS011;64402;44.708;37.644;2023-05-07T12:04:24;14.93;;;4.80;;
75785;SDS011;64402;44.708;37.644;2023-05-07T12:06:54;12.18;;;5.10;;
75785;SDS011;64402;44.708;37.644;2023-05-07T12:09:21;14.55;;;4.95;;
75785;SDS011;64402;44.708;37.644;2023-05-07T12:11:47;14.30;;;5.53;;
75785;SDS011;64402;44.708;37.644;2023-05-07T12:14:14;18.08;;;5.35;;
75785;SDS011;64402;44.708;37.644;2023-05-07T12:16:41;16.17;;;5.30;;
75785;SDS011;64402;44.708;37.644;2023-05-07T12:19:08;16.10;;;5.95;;
75785;SDS011;64402;44.708;37.644;2023-05-07T12:21:38;14.55;;;4.63;;
75785;SDS011;64402;44.708;37.644;2023-05-07T12:24:05;11.02;;;3.53;;
75785;SDS011;64402;44.708;37.644;2023-05-07T12:26:31;8.55;;;3.05;;
75785;SDS011;64402;44.708;37.644;2023-05-07T12:29:02;10.82;;;3.95;;
75785;SDS011;64402;44.708;37.644;2023-05-07T12:31:29;11.57;;;3.85;;
75785;SDS011;64402;44.708;37.644;2023-05-07T12:33:56;13.15;;;5.13;;
75785;SDS011;64402;44.708;37.644;2023-05-07T12:36:22;14.23;;;5.20;;
75785;SDS011;64402;44.708;37.644;2023-05-07T12:38:51;27.90;;;8.70;;
75785;SDS011;64402;44.708;37.644;2023-05-07T12:41:20;13.75;;;5.38;;
75785;SDS011;64402;44.708;37.644;2023-05-07T12:43:51;9.90;;;4.00;;
75785;SDS011;64402;44.708;37.644;2023-05-07T12:46:22;11.52;;;4.72;;
75785;SDS011;64402;44.708;37.644;2023-05-07T12:48:49;14.05;;;3.60;;
75785;SDS011;64402;44.708;37.644;2023-05-07T12:51:15;13.77;;;4.90;;
75785;SDS011;64402;44.708;37.644;2023-05-07T12:53:42;13.70;;;4.05;;
75785;SDS011;64402;44.708;37.644;2023-05-07T12:56:08;12.02;;;4.20;;
75785;SDS011;64402;44.708;37.644;2023-05-07T12:58:35;11.75;;;3.90;;
75785;SDS011;64402;44.708;37.644;2023-05-07T13:01:06;15.52;;;3.78;;
75785;SDS011;64402;44.708;37.644;2023-05-07T13:03:35;9.65;;;4.07;;
75785;SDS011;64402;44.708;37.644;2023-05-07T13:06:03;12.68;;;3.50;;
75785;SDS011;64402;44.708;37.644;2023-05-07T13:08:37;9.00;;;3.47;;
75785;SDS011;64402;44.708;37.644;2023-05-07T13:11:06;9.88;;;3.47;;
75785;SDS011;64402;44.708;37.644;2023-05-07T13:13:34;10.30;;;4.07;;
75785;SDS011;64402;44.708;37.644;2023-05-07T13:16:01;11.27;;;3.97;;
75785;SDS011;64402;44.708;37.644;2023-05-07T13:18:32;9.45;;;4.00;;
75785;SDS011;64402;44.708;37.644;2023-05-07T13:20:59;14.65;;;3.55;;
75785;SDS011;64402;44.708;37.644;2023-05-07T13:23:27;15.55;;;3.60;;
75785;SDS011;64402;44.708;37.644;2023-05-07T13:25:53;10.55;;;2.63;;
75785;SDS011;64402;44.708;37.644;2023-05-07T13:28:21;12.43;;;3.17;;
75785;SDS011;64402;44.708;37.644;2023-05-07T13:30:48;17.58;;;3.40;;
75785;SDS011;64402;44.708;37.644;2023-05-07T13:33:15;8.80;;;2.45;;
75785;SDS011;64402;44.708;37.644;2023-05-07T13:35:41;11.93;;;3.25;;
75785;SDS011;64402;44.708;37.644;2023-05-07T13:38:07;14.75;;;3.42;;
75785;SDS011;64402;44.708;37.644;2023-05-07T13:40:34;19.30;;;2.95;;
75785;SDS011;64402;44.708;37.644;2023-05-07T13:43:00;15.70;;;3.63;;
75785;SDS011;64402;44.708;37.644;2023-05-07T13:45:29;10.05;;;2.60;;
75785;SDS011;64402;44.708;37.644;2023-05-07T13:47:56;12.68;;;3.08;;
75785;SDS011;64402;44.708;37.644;2023-05-07T13:50:23;11.05;;;2.55;;
75785;SDS011;64402;44.708;37.644;2023-05-07T13:52:49;11.70;;;2.90;;
75785;SDS011;64402;44.708;37.644;2023-05-07T13:55:19;12.57;;;4.20;;
75785;SDS011;64402;44.708;37.644;2023-05-07T13:57:47;7.32;;;2.95;;
75785;SDS011;64402;44.708;37.644;2023-05-07T14:02:41;37.10;;;7.28;;
75785;SDS011;64402;44.708;37.644;2023-05-07T14:05:07;10.95;;;3.45;;
75785;SDS011;64402;44.708;37.644;2023-05-07T14:07:35;20.83;;;6.32;;
75785;SDS011;64402;44.708;37.644;2023-05-07T14:10:01;16.42;;;5.97;;
75785;SDS011;64402;44.708;37.644;2023-05-07T14:12:28;9.00;;;3.72;;
75785;SDS011;64402;44.708;37.644;2023-05-07T14:14:54;12.07;;;4.30;;
75785;SDS011;64402;44.708;37.644;2023-05-07T14:17:20;12.60;;;5.40;;
75785;SDS011;64402;44.708;37.644;2023-05-07T14:19:48;9.75;;;3.45;;
75785;SDS011;64402;44.708;37.644;2023-05-07T14:22:14;15.93;;;4.05;;
75785;SDS011;64402;44.708;37.644;2023-05-07T14:24:40;15.10;;;4.80;;
75785;SDS011;64402;44.708;37.644;2023-05-07T14:27:07;24.00;;;4.28;;
75785;SDS011;64402;44.708;37.644;2023-05-07T14:29:33;10.00;;;2.70;;
75785;SDS011;64402;44.708;37.644;2023-05-07T14:34:27;7.97;;;2.15;;
75785;SDS011;64402;44.708;37.644;2023-05-07T14:36:54;9.90;;;3.70;;
75785;SDS011;64402;44.708;37.644;2023-05-07T14:39:21;12.23;;;3.92;;
75785;SDS011;64402;44.708;37.644;2023-05-07T14:41:47;12.60;;;3.60;;
75785;SDS011;64402;44.708;37.644;2023-05-07T14:44:13;9.10;;;2.72;;
75785;SDS011;64402;44.708;37.644;2023-05-07T14:46:39;15.35;;;2.67;;
75785;SDS011;64402;44.708;37.644;2023-05-07T14:49:06;8.00;;;2.50;;
75785;SDS011;64402;44.708;37.644;2023-05-07T14:51:32;10.20;;;2.22;;
75785;SDS011;64402;44.708;37.644;2023-05-07T14:53:58;13.73;;;2.60;;